createdAt,value
2023-03-29T00:01:08.391Z,24.48
2023-03-29T00:03:37.819Z,24.49
2023-03-29T00:06:07.638Z,24.51
2023-03-29T00:08:36.088Z,24.52
2023-03-29T00:11:05.046Z,24.54
2023-03-29T00:13:34.192Z,24.55
2023-03-29T00:16:02.579Z,24.57
2023-03-29T00:18:30.960Z,24.59
2023-03-29T00:21:01.398Z,24.63
2023-03-29T00:23:29.994Z,24.65
2023-03-29T00:26:01.647Z,24.69
2023-03-29T00:28:30.359Z,24.72
2023-03-29T00:31:11.037Z,24.75
2023-03-29T00:33:39.969Z,24.80
2023-03-29T00:36:11.133Z,24.83
2023-03-29T00:38:41.865Z,24.87
2023-03-29T00:41:10.951Z,24.94
2023-03-29T00:43:58.194Z,25.01
2023-03-29T00:46:28.121Z,25.08
2023-03-29T00:49:08.440Z,25.15
2023-03-29T00:51:40.637Z,25.21
2023-03-29T00:54:15.531Z,25.27
2023-03-29T00:56:51.025Z,25.33
2023-03-29T00:59:29.494Z,25.40
2023-03-29T01:02:08.546Z,25.46
2023-03-29T01:04:46.478Z,25.53
2023-03-29T01:07:39.097Z,25.57
2023-03-29T01:10:10.937Z,25.65
2023-03-29T01:12:47.691Z,25.71
2023-03-29T01:15:21.101Z,25.76
2023-03-29T01:17:51.680Z,25.82
2023-03-29T01:20:44.303Z,25.86
2023-03-29T01:23:27.955Z,25.92
2023-03-29T01:26:10.757Z,25.97
2023-03-29T01:28:47.938Z,26.03
2023-03-29T01:31:26.202Z,26.07
2023-03-29T01:34:02.386Z,26.13
2023-03-29T01:36:41.895Z,26.17
2023-03-29T01:39:10.386Z,26.22
2023-03-29T01:42:15.369Z,26.27
2023-03-29T01:45:14.810Z,26.32
2023-03-29T01:48:00.509Z,26.37
2023-03-29T01:50:28.862Z,26.44
2023-03-29T01:53:23.657Z,26.53
2023-03-29T01:55:58.347Z,26.61
2023-03-29T01:58:34.682Z,26.68
2023-03-29T02:01:11.287Z,26.75
2023-03-29T02:03:45.711Z,26.84
2023-03-29T02:06:19.125Z,26.91
2023-03-29T02:08:48.775Z,26.99
2023-03-29T02:11:17.418Z,27.04
2023-03-29T02:13:45.820Z,27.09
2023-03-29T02:16:16.364Z,27.15
2023-03-29T02:18:48.800Z,27.20
2023-03-29T02:21:31.067Z,27.25
2023-03-29T02:24:03.031Z,27.29
2023-03-29T02:26:31.721Z,27.32
2023-03-29T02:29:00.159Z,27.37
2023-03-29T02:31:28.496Z,27.42
2023-03-29T02:34:03.193Z,27.46
2023-03-29T02:36:39.200Z,27.49
2023-03-29T02:39:10.730Z,27.50
2023-03-29T02:41:40.088Z,27.51
2023-03-29T02:44:12.217Z,27.49
2023-03-29T02:46:43.673Z,27.48
2023-03-29T02:49:12.663Z,27.46
2023-03-29T02:51:41.149Z,27.44
2023-03-29T02:54:19.450Z,27.45
2023-03-29T02:57:02.048Z,27.44
2023-03-29T02:59:31.383Z,27.39
2023-03-29T03:02:00.544Z,27.35
2023-03-29T03:04:31.064Z,27.35
2023-03-29T03:06:59.407Z,27.36
2023-03-29T03:09:28.329Z,27.40
2023-03-29T03:11:56.690Z,27.45
2023-03-29T03:14:25.018Z,27.53
2023-03-29T03:16:53.849Z,27.61
2023-03-29T03:19:22.774Z,27.69
2023-03-29T03:21:51.952Z,27.75
2023-03-29T03:24:20.460Z,27.73
2023-03-29T03:26:49.136Z,27.68
2023-03-29T03:29:18.127Z,27.62
2023-03-29T03:31:46.519Z,27.61
2023-03-29T03:34:14.855Z,27.62
2023-03-29T03:36:43.213Z,27.65
2023-03-29T03:39:12.766Z,27.67
2023-03-29T03:41:41.470Z,27.72
2023-03-29T03:44:09.880Z,27.81
2023-03-29T03:46:38.243Z,27.90
2023-03-29T03:49:06.686Z,27.94
2023-03-29T03:51:35.042Z,27.99
2023-03-29T03:54:03.417Z,28.04
2023-03-29T03:56:32.035Z,28.10
2023-03-29T03:59:00.378Z,28.18
2023-03-29T04:01:29.100Z,28.25
2023-03-29T04:03:57.542Z,28.33
2023-03-29T04:06:26.367Z,28.44
2023-03-29T04:08:54.690Z,28.50
2023-03-29T04:11:23.048Z,28.62
2023-03-29T04:13:51.367Z,28.71
2023-03-29T04:16:19.710Z,28.80
2023-03-29T04:18:48.594Z,28.90
2023-03-29T04:21:20.022Z,29.00
2023-03-29T04:23:49.710Z,29.08
2023-03-29T04:26:19.007Z,29.22
2023-03-29T04:28:47.532Z,29.35
2023-03-29T04:31:16.624Z,29.44
2023-03-29T04:33:47.743Z,29.48
2023-03-29T04:36:16.874Z,29.48
2023-03-29T04:38:47.803Z,29.48
2023-03-29T04:41:16.857Z,29.47
2023-03-29T04:43:47.362Z,29.49
2023-03-29T04:46:16.646Z,29.45
2023-03-29T04:48:45.044Z,29.45
2023-03-29T04:51:13.686Z,29.44
2023-03-29T04:53:42.684Z,29.42
2023-03-29T04:56:11.175Z,29.47
2023-03-29T04:58:39.521Z,29.48
2023-03-29T05:01:07.909Z,29.54
2023-03-29T05:03:37.048Z,29.60
2023-03-29T05:06:11.108Z,29.68
2023-03-29T05:08:41.253Z,29.73
2023-03-29T05:11:11.907Z,29.78
2023-03-29T05:13:41.040Z,29.83
2023-03-29T05:16:09.886Z,29.85
2023-03-29T05:18:38.227Z,29.90
2023-03-29T05:21:07.369Z,29.96
2023-03-29T05:23:35.723Z,29.98
2023-03-29T05:26:05.516Z,30.01
2023-03-29T05:28:34.806Z,30.07
2023-03-29T05:31:05.808Z,30.14
2023-03-29T05:33:35.556Z,30.20
2023-03-29T05:36:10.384Z,30.24
2023-03-29T05:38:39.115Z,30.29
2023-03-29T05:41:07.975Z,30.34
2023-03-29T05:43:36.417Z,30.36
2023-03-29T05:46:05.141Z,30.41
2023-03-29T05:48:33.601Z,30.39
2023-03-29T05:51:02.163Z,30.36
2023-03-29T05:53:30.916Z,30.31
2023-03-29T05:55:59.653Z,30.28
2023-03-29T05:58:29.363Z,30.31
2023-03-29T06:00:58.400Z,30.39
2023-03-29T06:03:28.412Z,30.41
2023-03-29T06:06:04.854Z,30.43
2023-03-29T06:08:36.038Z,30.46
2023-03-29T06:11:07.443Z,30.42
2023-03-29T06:13:37.123Z,30.35
2023-03-29T06:16:09.503Z,30.25
2023-03-29T06:18:42.176Z,30.12
2023-03-29T06:21:10.705Z,30.01
2023-03-29T06:23:39.038Z,29.94
2023-03-29T06:26:07.820Z,29.91
2023-03-29T06:28:36.620Z,29.94
2023-03-29T06:31:06.464Z,30.01
2023-03-29T06:33:35.218Z,30.08
2023-03-29T06:36:04.343Z,30.08
2023-03-29T06:38:33.325Z,30.07
2023-03-29T06:41:06.984Z,30.01
2023-03-29T06:43:35.772Z,29.94
2023-03-29T06:46:05.135Z,29.87
2023-03-29T06:48:33.544Z,29.80
2023-03-29T06:51:02.298Z,29.76
2023-03-29T06:53:31.716Z,29.72
2023-03-29T06:56:00.647Z,29.65
2023-03-29T06:58:29.743Z,29.61
2023-03-29T07:01:03.437Z,29.56
2023-03-29T07:03:32.474Z,29.51
2023-03-29T07:06:10.528Z,29.47
2023-03-29T07:08:48.318Z,29.46
2023-03-29T07:11:17.469Z,29.46
2023-03-29T07:13:47.185Z,29.43
2023-03-29T07:16:15.669Z,29.41
2023-03-29T07:18:45.203Z,29.40
2023-03-29T07:21:14.598Z,29.40
2023-03-29T07:23:43.051Z,29.38
2023-03-29T07:26:12.129Z,29.35
2023-03-29T07:28:40.797Z,29.32
2023-03-29T07:31:12.503Z,29.29
2023-03-29T07:33:41.636Z,29.26
2023-03-29T07:36:10.711Z,29.22
2023-03-29T07:38:39.521Z,29.20
2023-03-29T07:41:08.949Z,29.19
2023-03-29T07:43:37.338Z,29.15
2023-03-29T07:46:07.303Z,29.13
2023-03-29T07:48:37.816Z,29.13
2023-03-29T07:51:07.272Z,29.10
2023-03-29T07:53:35.800Z,29.06
2023-03-29T07:56:04.293Z,29.04
2023-03-29T07:58:32.674Z,29.03
2023-03-29T08:01:01.534Z,29.04
2023-03-29T08:03:30.280Z,29.05
2023-03-29T08:05:58.895Z,29.10
2023-03-29T08:08:27.202Z,29.22
2023-03-29T08:10:55.811Z,29.38
2023-03-29T08:13:24.274Z,29.59
2023-03-29T08:15:52.678Z,29.79
2023-03-29T08:18:21.007Z,29.98
2023-03-29T08:20:49.504Z,30.16
2023-03-29T08:23:17.906Z,30.30
2023-03-29T08:25:48.149Z,30.40
2023-03-29T08:28:16.575Z,30.48
2023-03-29T08:30:44.999Z,30.55
2023-03-29T08:33:13.392Z,30.59
2023-03-29T08:35:42.254Z,30.63
2023-03-29T08:38:11.297Z,30.60
2023-03-29T08:40:42.899Z,30.58
2023-03-29T08:43:23.233Z,30.55
2023-03-29T08:46:02.617Z,30.56
2023-03-29T08:48:36.028Z,30.60
2023-03-29T08:51:22.481Z,30.62
2023-03-29T08:54:05.870Z,30.68
2023-03-29T08:56:38.537Z,30.69
2023-03-29T08:59:14.579Z,30.68
2023-03-29T09:01:44.875Z,30.69
2023-03-29T09:04:31.416Z,30.69
2023-03-29T09:07:00.296Z,30.68
2023-03-29T09:09:34.876Z,30.63
2023-03-29T09:12:06.333Z,30.59
2023-03-29T09:14:53.694Z,30.52
2023-03-29T09:17:49.835Z,30.45
2023-03-29T09:20:38.976Z,30.37
2023-03-29T09:23:37.828Z,30.32
2023-03-29T09:26:19.186Z,30.27
2023-03-29T09:29:01.694Z,30.24
2023-03-29T09:31:38.168Z,30.23
2023-03-29T09:34:18.646Z,30.22
2023-03-29T09:36:58.459Z,30.22
2023-03-29T09:39:30.025Z,30.20
2023-03-29T09:42:05.518Z,30.22
2023-03-29T09:44:44.906Z,30.23
2023-03-29T09:47:28.429Z,30.29
2023-03-29T09:50:19.811Z,30.34
2023-03-29T09:52:58.726Z,30.41
2023-03-29T09:55:30.614Z,30.45
2023-03-29T09:58:08.628Z,30.49
2023-03-29T10:00:37.633Z,30.52
2023-03-29T10:03:06.943Z,30.49
2023-03-29T10:05:39.196Z,30.44
2023-03-29T10:08:28.757Z,30.35
2023-03-29T10:11:03.207Z,30.25
2023-03-29T10:13:34.764Z,30.17
2023-03-29T10:16:18.051Z,30.08
2023-03-29T10:18:46.459Z,29.99
2023-03-29T10:21:22.990Z,29.91
2023-03-29T10:24:00.284Z,29.83
2023-03-29T10:26:35.492Z,29.76
2023-03-29T10:29:09.241Z,29.71
2023-03-29T10:31:42.529Z,29.69
2023-03-29T10:34:16.388Z,29.64
2023-03-29T10:36:54.854Z,29.60
2023-03-29T10:39:33.833Z,29.56
2023-03-29T10:42:05.473Z,29.51
2023-03-29T10:44:37.479Z,29.45
2023-03-29T10:47:21.212Z,29.39
2023-03-29T10:50:00.448Z,29.34
2023-03-29T10:52:31.532Z,29.28
2023-03-29T10:55:00.977Z,29.20
2023-03-29T10:57:40.906Z,29.15
2023-03-29T11:00:20.718Z,29.07
2023-03-29T11:03:08.748Z,29.02
2023-03-29T11:06:12.405Z,28.92
2023-03-29T11:08:59.738Z,28.85
2023-03-29T11:12:14.484Z,28.79
2023-03-29T11:15:06.662Z,28.73
2023-03-29T11:17:38.326Z,28.67
2023-03-29T11:20:20.622Z,28.61
2023-03-29T11:23:07.828Z,28.55
2023-03-29T11:25:45.477Z,28.49
2023-03-29T11:28:41.906Z,28.42
2023-03-29T11:31:26.056Z,28.35
2023-03-29T11:34:45.860Z,28.29
2023-03-29T11:37:38.858Z,28.22
2023-03-29T11:40:32.955Z,28.17
2023-03-29T11:43:05.494Z,28.13
2023-03-29T11:45:40.971Z,28.10
2023-03-29T11:48:22.206Z,28.06
2023-03-29T11:51:27.190Z,28.01
2023-03-29T11:54:08.718Z,27.98
2023-03-29T11:56:51.793Z,27.94
2023-03-29T11:59:31.709Z,27.90
2023-03-29T12:02:05.762Z,27.87
2023-03-29T12:04:48.138Z,27.84
2023-03-29T12:07:29.099Z,27.82
2023-03-29T12:10:27.710Z,27.80
2023-03-29T12:13:07.462Z,27.79
2023-03-29T12:15:52.024Z,27.76
2023-03-29T12:18:24.605Z,27.75
2023-03-29T12:21:03.075Z,27.72
2023-03-29T12:23:34.231Z,27.71
2023-03-29T12:26:13.598Z,27.67
2023-03-29T12:29:06.463Z,27.63
2023-03-29T12:31:46.539Z,27.61
2023-03-29T12:34:31.949Z,27.58
2023-03-29T12:37:20.057Z,27.54
2023-03-29T12:39:50.147Z,27.50
2023-03-29T12:42:24.288Z,27.45
2023-03-29T12:45:03.313Z,27.44
2023-03-29T12:47:44.089Z,27.40
2023-03-29T12:50:34.942Z,27.36
2023-03-29T12:53:15.237Z,27.34
2023-03-29T12:55:43.648Z,27.32
2023-03-29T12:58:24.899Z,27.31
2023-03-29T13:01:11.115Z,27.27
2023-03-29T13:03:58.647Z,27.24
2023-03-29T13:06:54.164Z,27.20
2023-03-29T13:09:49.190Z,27.17
2023-03-29T13:12:17.668Z,27.16
2023-03-29T13:14:53.261Z,27.13
2023-03-29T13:17:53.988Z,27.10
2023-03-29T13:20:34.164Z,27.08
2023-03-29T13:23:38.969Z,27.06
2023-03-29T13:26:34.471Z,27.02
2023-03-29T13:29:17.580Z,26.98
2023-03-29T13:31:54.635Z,26.94
2023-03-29T13:34:46.016Z,26.91
2023-03-29T13:37:57.882Z,26.88
2023-03-29T13:40:44.692Z,26.84
2023-03-29T13:43:24.671Z,26.80
2023-03-29T13:46:07.782Z,26.77
2023-03-29T13:48:39.325Z,26.75
2023-03-29T13:51:19.908Z,26.71
2023-03-29T13:54:01.702Z,26.69
2023-03-29T13:56:38.244Z,26.66
2023-03-29T13:59:26.436Z,26.62
2023-03-29T14:01:58.897Z,26.59
2023-03-29T14:04:32.300Z,26.54
2023-03-29T14:07:02.802Z,26.52
2023-03-29T14:09:34.131Z,26.47
2023-03-29T14:12:03.280Z,26.44
2023-03-29T14:14:34.000Z,26.41
2023-03-29T14:17:03.161Z,26.38
2023-03-29T14:19:39.495Z,26.37
2023-03-29T14:22:19.898Z,26.35
2023-03-29T14:24:54.066Z,26.33
2023-03-29T14:27:23.805Z,26.31
2023-03-29T14:29:54.202Z,26.29
2023-03-29T14:32:31.035Z,26.26
2023-03-29T14:35:01.454Z,26.24
2023-03-29T14:37:31.130Z,26.21
2023-03-29T14:40:00.712Z,26.18
2023-03-29T14:42:30.943Z,26.15
2023-03-29T14:45:05.248Z,26.14
2023-03-29T14:47:35.277Z,26.12
2023-03-29T14:50:04.925Z,26.10
2023-03-29T14:52:34.949Z,26.05
2023-03-29T14:55:05.053Z,26.04
2023-03-29T14:57:38.944Z,26.01
2023-03-29T15:00:29.140Z,26.01
2023-03-29T15:03:03.094Z,25.98
2023-03-29T15:05:42.454Z,25.96
2023-03-29T15:08:33.337Z,25.96
2023-03-29T15:11:04.227Z,25.95
2023-03-29T15:13:32.900Z,25.94
2023-03-29T15:16:07.561Z,25.93
2023-03-29T15:18:42.894Z,25.92
2023-03-29T15:21:14.949Z,25.91
2023-03-29T15:24:04.627Z,25.89
2023-03-29T15:26:39.204Z,25.87
2023-03-29T15:29:24.568Z,25.85
2023-03-29T15:31:58.533Z,25.83
2023-03-29T15:34:33.072Z,25.81
2023-03-29T15:37:03.594Z,25.79
2023-03-29T15:39:33.729Z,25.78
2023-03-29T15:42:02.897Z,25.76
2023-03-29T15:44:34.877Z,25.74
2023-03-29T15:47:03.406Z,25.72
2023-03-29T15:49:32.080Z,25.70
2023-03-29T15:52:00.514Z,25.67
2023-03-29T15:54:30.094Z,25.66
2023-03-29T15:57:04.456Z,25.65
2023-03-29T15:59:33.548Z,25.64
2023-03-29T16:02:02.306Z,25.63
2023-03-29T16:04:30.782Z,25.62
2023-03-29T16:06:59.845Z,25.62
2023-03-29T16:09:28.471Z,25.61
2023-03-29T16:11:57.085Z,25.61
2023-03-29T16:14:33.159Z,25.62
2023-03-29T16:17:04.014Z,25.60
2023-03-29T16:19:33.536Z,25.59
2023-03-29T16:22:06.019Z,25.57
2023-03-29T16:24:36.114Z,25.57
2023-03-29T16:27:05.421Z,25.55
2023-03-29T16:29:33.977Z,25.55
2023-03-29T16:32:04.610Z,25.56
2023-03-29T16:34:34.598Z,25.53
2023-03-29T16:37:03.050Z,25.53
2023-03-29T16:39:31.524Z,25.52
2023-03-29T16:42:00.133Z,25.51
2023-03-29T16:44:29.095Z,25.50
2023-03-29T16:47:00.756Z,25.49
2023-03-29T16:49:29.456Z,25.47
2023-03-29T16:51:58.133Z,25.45
2023-03-29T16:54:27.527Z,25.45
2023-03-29T16:56:56.097Z,25.42
2023-03-29T16:59:25.118Z,25.41
2023-03-29T17:01:53.677Z,25.39
2023-03-29T17:04:22.200Z,25.39
2023-03-29T17:06:50.683Z,25.37
2023-03-29T17:09:19.193Z,25.37
2023-03-29T17:11:47.677Z,25.35
2023-03-29T17:14:17.970Z,25.34
2023-03-29T17:16:47.294Z,25.32
2023-03-29T17:19:15.780Z,25.31
2023-03-29T17:21:44.617Z,25.29
2023-03-29T17:24:13.090Z,25.27
2023-03-29T17:26:43.832Z,25.25
2023-03-29T17:29:13.636Z,25.23
2023-03-29T17:31:48.564Z,25.21
2023-03-29T17:34:18.716Z,25.20
2023-03-29T17:36:47.758Z,25.18
2023-03-29T17:39:16.562Z,25.17
2023-03-29T17:41:45.045Z,25.16
2023-03-29T17:44:13.440Z,25.16
2023-03-29T17:46:42.093Z,25.15
2023-03-29T17:49:10.486Z,25.14
2023-03-29T17:51:39.542Z,25.12
2023-03-29T17:54:08.242Z,25.10
2023-03-29T17:56:36.678Z,25.08
2023-03-29T17:59:05.548Z,25.09
2023-03-29T18:01:34.900Z,25.08
2023-03-29T18:04:04.303Z,25.07
2023-03-29T18:06:36.016Z,25.06
2023-03-29T18:09:04.726Z,25.04
2023-03-29T18:11:33.205Z,25.03
2023-03-29T18:14:02.156Z,25.04
2023-03-29T18:16:30.886Z,25.04
2023-03-29T18:18:59.467Z,25.03
2023-03-29T18:21:29.084Z,25.03
2023-03-29T18:23:57.772Z,25.01
2023-03-29T18:26:26.823Z,25.00
2023-03-29T18:28:55.429Z,25.00
2023-03-29T18:31:23.920Z,24.99
2023-03-29T18:33:52.375Z,24.98
2023-03-29T18:36:21.253Z,24.96
2023-03-29T18:38:49.962Z,24.95
2023-03-29T18:41:18.425Z,24.95
2023-03-29T18:43:48.176Z,24.94
2023-03-29T18:46:17.259Z,24.94
2023-03-29T18:48:45.707Z,24.93
2023-03-29T18:51:14.339Z,24.92
2023-03-29T18:53:44.606Z,24.91
2023-03-29T18:56:13.074Z,24.90
2023-03-29T18:58:41.845Z,24.88
2023-03-29T19:01:11.711Z,24.87
2023-03-29T19:03:40.342Z,24.86
2023-03-29T19:06:09.931Z,24.85
2023-03-29T19:08:40.596Z,24.85
2023-03-29T19:11:11.402Z,24.84
2023-03-29T19:13:40.020Z,24.82
2023-03-29T19:16:08.929Z,24.83
2023-03-29T19:18:37.736Z,24.82
2023-03-29T19:21:06.222Z,24.80
2023-03-29T19:23:34.878Z,24.80
2023-03-29T19:26:06.508Z,24.80
2023-03-29T19:28:35.723Z,24.80
2023-03-29T19:31:05.602Z,24.79
2023-03-29T19:33:34.266Z,24.79
2023-03-29T19:36:03.244Z,24.77
2023-03-29T19:38:31.837Z,24.76
2023-03-29T19:41:00.539Z,24.77
2023-03-29T19:43:29.201Z,24.75
2023-03-29T19:45:58.379Z,24.76
2023-03-29T19:48:27.076Z,24.74
2023-03-29T19:50:55.488Z,24.74
2023-03-29T19:53:24.010Z,24.75
2023-03-29T19:55:53.321Z,24.75
2023-03-29T19:58:22.675Z,24.75
2023-03-29T20:00:54.114Z,24.75
2023-03-29T20:03:23.525Z,24.75
2023-03-29T20:05:52.341Z,24.74
2023-03-29T20:08:20.742Z,24.74
2023-03-29T20:10:49.104Z,24.75
2023-03-29T20:13:24.475Z,24.76
2023-03-29T20:16:00.253Z,24.76
2023-03-29T20:18:28.643Z,24.77
2023-03-29T20:20:57.062Z,24.78
2023-03-29T20:23:25.465Z,24.77
2023-03-29T20:25:54.457Z,24.77
2023-03-29T20:28:22.835Z,24.77
2023-03-29T20:30:52.337Z,24.78
2023-03-29T20:33:21.940Z,24.77
2023-03-29T20:35:50.349Z,24.77
2023-03-29T20:38:18.842Z,24.78
2023-03-29T20:40:47.202Z,24.77
2023-03-29T20:43:19.218Z,24.77
2023-03-29T20:45:54.007Z,24.77
2023-03-29T20:48:23.972Z,24.76
2023-03-29T20:50:52.858Z,24.76
2023-03-29T20:53:21.489Z,24.75
2023-03-29T20:55:49.953Z,24.75
2023-03-29T20:58:18.695Z,24.74
2023-03-29T21:00:49.305Z,24.74
2023-03-29T21:03:17.899Z,24.73
2023-03-29T21:05:46.913Z,24.73
2023-03-29T21:08:16.463Z,24.71
2023-03-29T21:10:46.246Z,24.70
2023-03-29T21:13:14.600Z,24.69
2023-03-29T21:15:43.192Z,24.69
2023-03-29T21:18:11.884Z,24.68
2023-03-29T21:20:40.348Z,24.68
2023-03-29T21:23:08.954Z,24.68
2023-03-29T21:25:38.394Z,24.67
2023-03-29T21:28:07.027Z,24.66
2023-03-29T21:30:35.414Z,24.64
2023-03-29T21:33:03.939Z,24.65
2023-03-29T21:35:34.258Z,24.63
2023-03-29T21:38:03.021Z,24.62
2023-03-29T21:40:31.526Z,24.61
2023-03-29T21:42:59.930Z,24.59
2023-03-29T21:45:28.603Z,24.59
2023-03-29T21:47:59.545Z,24.59
2023-03-29T21:50:28.015Z,24.58
2023-03-29T21:52:57.225Z,24.57
2023-03-29T21:55:25.694Z,24.57
2023-03-29T21:57:54.190Z,24.56
2023-03-29T22:00:23.342Z,24.56
2023-03-29T22:02:52.607Z,24.55
2023-03-29T22:05:21.022Z,24.56
2023-03-29T22:07:53.681Z,24.55
2023-03-29T22:10:24.853Z,24.54
2023-03-29T22:12:53.619Z,24.54
2023-03-29T22:15:22.043Z,24.54
2023-03-29T22:17:51.365Z,24.52
2023-03-29T22:20:20.074Z,24.51
2023-03-29T22:22:53.264Z,24.52
2023-03-29T22:25:22.308Z,24.52
2023-03-29T22:27:51.320Z,24.52
2023-03-29T22:30:20.411Z,24.53
2023-03-29T22:32:48.825Z,24.56
2023-03-29T22:35:17.451Z,24.57
2023-03-29T22:37:46.013Z,24.58
2023-03-29T22:40:15.148Z,24.58
2023-03-29T22:42:43.630Z,24.58
2023-03-29T22:45:12.417Z,24.59
2023-03-29T22:47:40.929Z,24.59
2023-03-29T22:50:09.840Z,24.60
2023-03-29T22:52:38.222Z,24.61
2023-03-29T22:55:07.410Z,24.62
2023-03-29T22:57:35.799Z,24.64
2023-03-29T23:00:09.683Z,24.64
2023-03-29T23:02:38.678Z,24.63
2023-03-29T23:05:07.839Z,24.66
2023-03-29T23:07:37.501Z,24.68
2023-03-29T23:10:08.146Z,24.69
2023-03-29T23:12:39.408Z,24.69
2023-03-29T23:15:08.907Z,24.70
2023-03-29T23:17:38.045Z,24.70
2023-03-29T23:20:07.441Z,24.72
2023-03-29T23:22:37.232Z,24.71
2023-03-29T23:25:05.800Z,24.73
2023-03-29T23:27:34.219Z,24.74
2023-03-29T23:30:02.631Z,24.75
2023-03-29T23:32:31.275Z,24.77
2023-03-29T23:35:00.977Z,24.79
2023-03-29T23:37:29.372Z,24.80
2023-03-29T23:39:57.852Z,24.84
2023-03-29T23:42:27.006Z,24.86
2023-03-29T23:44:55.447Z,24.88
2023-03-29T23:47:23.870Z,24.92
2023-03-29T23:49:54.153Z,24.92
2023-03-29T23:52:24.035Z,24.96
2023-03-29T23:54:52.463Z,24.99
2023-03-29T23:57:21.580Z,25.01
2023-03-29T23:59:53.573Z,25.04
